sensor_id;sensor_type;location;lat;lon;timestamp;P1;durP1;ratioP1;P2;durP2;ratioP2
51838;SDS011;37886;53.174;6.368;2022-12-15T00:02:05;23.77;;;9.15;;
51838;SDS011;37886;53.174;6.368;2022-12-15T00:04:49;25.92;;;12.75;;
51838;SDS011;37886;53.174;6.368;2022-12-15T00:07:33;17.92;;;10.20;;
51838;SDS011;37886;53.174;6.368;2022-12-15T00:10:18;17.02;;;9.38;;
51838;SDS011;37886;53.174;6.368;2022-12-15T00:13:02;18.10;;;8.75;;
51838;SDS011;37886;53.174;6.368;2022-12-15T00:15:53;14.30;;;8.43;;
51838;SDS011;37886;53.174;6.368;2022-12-15T00:18:37;16.60;;;7.95;;
51838;SDS011;37886;53.174;6.368;2022-12-15T00:21:21;14.57;;;8.15;;
51838;SDS011;37886;53.174;6.368;2022-12-15T00:24:05;20.08;;;8.05;;
51838;SDS011;37886;53.174;6.368;2022-12-15T00:26:50;15.70;;;7.13;;
51838;SDS011;37886;53.174;6.368;2022-12-15T00:29:34;18.23;;;7.28;;
51838;SDS011;37886;53.174;6.368;2022-12-15T00:32:18;18.00;;;8.23;;
51838;SDS011;37886;53.174;6.368;2022-12-15T00:35:06;22.20;;;8.55;;
51838;SDS011;37886;53.174;6.368;2022-12-15T00:37:50;23.77;;;8.75;;
51838;SDS011;37886;53.174;6.368;2022-12-15T00:40:34;19.08;;;9.68;;
51838;SDS011;37886;53.174;6.368;2022-12-15T00:43:00;17.25;;;8.75;;
51838;SDS011;37886;53.174;6.368;2022-12-15T00:45:26;18.52;;;8.20;;
51838;SDS011;37886;53.174;6.368;2022-12-15T00:48:12;16.30;;;7.95;;
51838;SDS011;37886;53.174;6.368;2022-12-15T00:50:38;21.85;;;8.68;;
51838;SDS011;37886;53.174;6.368;2022-12-15T00:53:20;19.60;;;8.93;;
51838;SDS011;37886;53.174;6.368;2022-12-15T00:56:06;24.40;;;10.27;;
51838;SDS011;37886;53.174;6.368;2022-12-15T00:58:51;20.75;;;10.43;;
51838;SDS011;37886;53.174;6.368;2022-12-15T01:01:35;18.88;;;8.98;;
51838;SDS011;37886;53.174;6.368;2022-12-15T01:04:19;22.27;;;9.70;;
51838;SDS011;37886;53.174;6.368;2022-12-15T01:07:04;20.52;;;9.60;;
51838;SDS011;37886;53.174;6.368;2022-12-15T01:09:48;19.83;;;9.75;;
51838;SDS011;37886;53.174;6.368;2022-12-15T01:12:32;19.13;;;9.18;;
51838;SDS011;37886;53.174;6.368;2022-12-15T01:15:16;18.65;;;8.57;;
51838;SDS011;37886;53.174;6.368;2022-12-15T01:18:00;18.65;;;7.75;;
51838;SDS011;37886;53.174;6.368;2022-12-15T01:20:44;15.60;;;8.23;;
51838;SDS011;37886;53.174;6.368;2022-12-15T01:23:29;17.17;;;8.23;;
51838;SDS011;37886;53.174;6.368;2022-12-15T01:25:56;13.68;;;7.53;;
51838;SDS011;37886;53.174;6.368;2022-12-15T01:28:22;11.80;;;7.55;;
51838;SDS011;37886;53.174;6.368;2022-12-15T01:30:48;19.35;;;8.18;;
51838;SDS011;37886;53.174;6.368;2022-12-15T01:33:15;16.58;;;7.68;;
51838;SDS011;37886;53.174;6.368;2022-12-15T01:35:41;17.10;;;8.25;;
51838;SDS011;37886;53.174;6.368;2022-12-15T01:38:07;16.75;;;8.80;;
51838;SDS011;37886;53.174;6.368;2022-12-15T01:40:34;14.77;;;8.45;;
51838;SDS011;37886;53.174;6.368;2022-12-15T01:43:24;18.23;;;9.25;;
51838;SDS011;37886;53.174;6.368;2022-12-15T01:51:39;22.17;;;9.18;;
51838;SDS011;37886;53.174;6.368;2022-12-15T01:54:11;19.70;;;9.95;;
51838;SDS011;37886;53.174;6.368;2022-12-15T01:56:51;21.90;;;10.00;;
51838;SDS011;37886;53.174;6.368;2022-12-15T01:59:25;22.60;;;10.60;;
51838;SDS011;37886;53.174;6.368;2022-12-15T02:01:57;23.73;;;11.27;;
51838;SDS011;37886;53.174;6.368;2022-12-15T02:04:22;23.10;;;10.60;;
51838;SDS011;37886;53.174;6.368;2022-12-15T02:06:49;22.77;;;10.93;;
51838;SDS011;37886;53.174;6.368;2022-12-15T02:09:16;28.17;;;11.60;;
51838;SDS011;37886;53.174;6.368;2022-12-15T02:11:46;22.00;;;11.40;;
51838;SDS011;37886;53.174;6.368;2022-12-15T02:14:24;22.80;;;9.73;;
51838;SDS011;37886;53.174;6.368;2022-12-15T02:26:04;20.45;;;9.52;;
51838;SDS011;37886;53.174;6.368;2022-12-15T02:31:57;22.80;;;8.65;;
51838;SDS011;37886;53.174;6.368;2022-12-15T02:37:19;20.60;;;9.02;;
51838;SDS011;37886;53.174;6.368;2022-12-15T02:39:53;20.38;;;7.28;;
51838;SDS011;37886;53.174;6.368;2022-12-15T02:42:19;16.67;;;7.97;;
51838;SDS011;37886;53.174;6.368;2022-12-15T02:53:08;13.25;;;5.45;;
51838;SDS011;37886;53.174;6.368;2022-12-15T03:01:24;17.80;;;4.82;;
51838;SDS011;37886;53.174;6.368;2022-12-15T03:03:58;18.38;;;4.63;;
51838;SDS011;37886;53.174;6.368;2022-12-15T03:06:26;8.60;;;3.78;;
51838;SDS011;37886;53.174;6.368;2022-12-15T03:08:53;12.85;;;3.75;;
51838;SDS011;37886;53.174;6.368;2022-12-15T03:11:18;14.52;;;3.35;;
51838;SDS011;37886;53.174;6.368;2022-12-15T03:13:44;8.20;;;3.65;;
51838;SDS011;37886;53.174;6.368;2022-12-15T03:16:10;9.05;;;2.75;;
51838;SDS011;37886;53.174;6.368;2022-12-15T03:18:36;9.75;;;2.70;;
51838;SDS011;37886;53.174;6.368;2022-12-15T03:21:02;8.48;;;2.30;;
51838;SDS011;37886;53.174;6.368;2022-12-15T03:23:28;11.77;;;2.97;;
51838;SDS011;37886;53.174;6.368;2022-12-15T03:25:53;12.23;;;2.80;;
51838;SDS011;37886;53.174;6.368;2022-12-15T03:28:19;9.82;;;2.95;;
51838;SDS011;37886;53.174;6.368;2022-12-15T03:30:46;12.38;;;2.90;;
51838;SDS011;37886;53.174;6.368;2022-12-15T03:33:13;10.50;;;2.70;;
51838;SDS011;37886;53.174;6.368;2022-12-15T03:35:38;8.80;;;2.90;;
51838;SDS011;37886;53.174;6.368;2022-12-15T03:38:04;10.30;;;2.80;;
51838;SDS011;37886;53.174;6.368;2022-12-15T03:40:30;8.65;;;3.03;;
51838;SDS011;37886;53.174;6.368;2022-12-15T03:42:56;8.18;;;2.85;;
51838;SDS011;37886;53.174;6.368;2022-12-15T03:45:23;7.72;;;2.72;;
51838;SDS011;37886;53.174;6.368;2022-12-15T03:47:51;8.15;;;2.67;;
51838;SDS011;37886;53.174;6.368;2022-12-15T03:50:19;9.07;;;2.70;;
51838;SDS011;37886;53.174;6.368;2022-12-15T03:52:50;11.38;;;2.97;;
51838;SDS011;37886;53.174;6.368;2022-12-15T03:55:26;6.97;;;2.53;;
51838;SDS011;37886;53.174;6.368;2022-12-15T03:57:55;7.80;;;2.65;;
51838;SDS011;37886;53.174;6.368;2022-12-15T04:00:23;11.38;;;3.70;;
51838;SDS011;37886;53.174;6.368;2022-12-15T04:02:50;15.40;;;2.70;;
51838;SDS011;37886;53.174;6.368;2022-12-15T04:07:50;8.90;;;2.55;;
51838;SDS011;37886;53.174;6.368;2022-12-15T04:10:19;11.80;;;3.13;;
51838;SDS011;37886;53.174;6.368;2022-12-15T04:12:45;9.55;;;3.13;;
51838;SDS011;37886;53.174;6.368;2022-12-15T04:15:11;11.73;;;2.75;;
51838;SDS011;37886;53.174;6.368;2022-12-15T04:17:37;10.52;;;2.60;;
51838;SDS011;37886;53.174;6.368;2022-12-15T04:20:04;11.35;;;2.67;;
51838;SDS011;37886;53.174;6.368;2022-12-15T04:22:41;12.00;;;3.17;;
51838;SDS011;37886;53.174;6.368;2022-12-15T04:25:10;6.43;;;2.72;;
51838;SDS011;37886;53.174;6.368;2022-12-15T04:27:56;9.15;;;3.33;;
51838;SDS011;37886;53.174;6.368;2022-12-15T04:30:43;9.57;;;3.45;;
51838;SDS011;37886;53.174;6.368;2022-12-15T04:33:30;10.63;;;3.83;;
51838;SDS011;37886;53.174;6.368;2022-12-15T04:36:14;11.75;;;4.28;;
51838;SDS011;37886;53.174;6.368;2022-12-15T04:38:59;12.65;;;4.22;;
51838;SDS011;37886;53.174;6.368;2022-12-15T04:41:43;6.07;;;3.78;;
51838;SDS011;37886;53.174;6.368;2022-12-15T04:44:28;20.90;;;4.22;;
51838;SDS011;37886;53.174;6.368;2022-12-15T04:47:13;15.25;;;4.70;;
51838;SDS011;37886;53.174;6.368;2022-12-15T04:49:57;10.43;;;4.47;;
51838;SDS011;37886;53.174;6.368;2022-12-15T04:52:41;14.63;;;5.00;;
51838;SDS011;37886;53.174;6.368;2022-12-15T04:55:25;11.80;;;4.80;;
51838;SDS011;37886;53.174;6.368;2022-12-15T04:58:09;15.25;;;5.45;;
51838;SDS011;37886;53.174;6.368;2022-12-15T05:00:55;9.18;;;5.00;;
51838;SDS011;37886;53.174;6.368;2022-12-15T05:03:40;16.02;;;5.80;;
51838;SDS011;37886;53.174;6.368;2022-12-15T05:06:25;14.95;;;6.43;;
51838;SDS011;37886;53.174;6.368;2022-12-15T05:09:09;18.73;;;6.60;;
51838;SDS011;37886;53.174;6.368;2022-12-15T05:11:54;14.75;;;6.32;;
51838;SDS011;37886;53.174;6.368;2022-12-15T05:14:38;17.25;;;6.28;;
51838;SDS011;37886;53.174;6.368;2022-12-15T05:17:22;15.52;;;6.07;;
51838;SDS011;37886;53.174;6.368;2022-12-15T05:20:07;16.98;;;7.82;;
51838;SDS011;37886;53.174;6.368;2022-12-15T05:22:52;12.98;;;7.13;;
51838;SDS011;37886;53.174;6.368;2022-12-15T05:25:38;15.05;;;7.55;;
51838;SDS011;37886;53.174;6.368;2022-12-15T05:28:22;15.40;;;7.85;;
51838;SDS011;37886;53.174;6.368;2022-12-15T05:31:06;16.23;;;7.97;;
51838;SDS011;37886;53.174;6.368;2022-12-15T05:33:51;18.55;;;8.40;;
51838;SDS011;37886;53.174;6.368;2022-12-15T05:36:17;14.90;;;8.77;;
51838;SDS011;37886;53.174;6.368;2022-12-15T05:38:46;17.02;;;8.10;;
51838;SDS011;37886;53.174;6.368;2022-12-15T05:41:13;20.67;;;8.65;;
51838;SDS011;37886;53.174;6.368;2022-12-15T05:43:39;17.67;;;9.02;;
51838;SDS011;37886;53.174;6.368;2022-12-15T05:46:05;20.20;;;8.02;;
51838;SDS011;37886;53.174;6.368;2022-12-15T05:48:30;21.75;;;8.38;;
51838;SDS011;37886;53.174;6.368;2022-12-15T05:50:56;18.38;;;7.63;;
51838;SDS011;37886;53.174;6.368;2022-12-15T05:53:27;15.80;;;7.37;;
51838;SDS011;37886;53.174;6.368;2022-12-15T05:55:59;16.20;;;8.35;;
51838;SDS011;37886;53.174;6.368;2022-12-15T05:58:34;16.52;;;8.50;;
51838;SDS011;37886;53.174;6.368;2022-12-15T06:01:05;14.68;;;7.97;;
51838;SDS011;37886;53.174;6.368;2022-12-15T06:03:32;15.50;;;7.63;;
51838;SDS011;37886;53.174;6.368;2022-12-15T06:05:58;23.83;;;8.00;;
51838;SDS011;37886;53.174;6.368;2022-12-15T06:08:28;19.30;;;7.90;;
51838;SDS011;37886;53.174;6.368;2022-12-15T06:10:55;17.48;;;7.68;;
51838;SDS011;37886;53.174;6.368;2022-12-15T06:13:22;20.02;;;7.22;;
51838;SDS011;37886;53.174;6.368;2022-12-15T06:16:05;16.90;;;7.53;;
51838;SDS011;37886;53.174;6.368;2022-12-15T06:18:35;20.00;;;6.70;;
51838;SDS011;37886;53.174;6.368;2022-12-15T06:21:11;13.45;;;7.43;;
51838;SDS011;37886;53.174;6.368;2022-12-15T06:23:42;14.05;;;7.43;;
51838;SDS011;37886;53.174;6.368;2022-12-15T06:26:09;20.83;;;7.50;;
51838;SDS011;37886;53.174;6.368;2022-12-15T06:28:35;13.57;;;7.70;;
51838;SDS011;37886;53.174;6.368;2022-12-15T06:31:01;21.90;;;8.63;;
51838;SDS011;37886;53.174;6.368;2022-12-15T06:33:29;14.98;;;7.88;;
51838;SDS011;37886;53.174;6.368;2022-12-15T06:35:55;18.52;;;8.55;;
51838;SDS011;37886;53.174;6.368;2022-12-15T06:38:21;13.82;;;8.40;;
51838;SDS011;37886;53.174;6.368;2022-12-15T06:40:56;13.10;;;7.68;;
51838;SDS011;37886;53.174;6.368;2022-12-15T06:43:24;17.75;;;8.02;;
51838;SDS011;37886;53.174;6.368;2022-12-15T06:45:50;16.98;;;7.70;;
51838;SDS011;37886;53.174;6.368;2022-12-15T06:48:16;19.90;;;8.60;;
51838;SDS011;37886;53.174;6.368;2022-12-15T06:50:46;18.55;;;7.90;;
51838;SDS011;37886;53.174;6.368;2022-12-15T06:53:12;18.90;;;9.90;;
51838;SDS011;37886;53.174;6.368;2022-12-15T06:55:39;23.77;;;9.77;;
51838;SDS011;37886;53.174;6.368;2022-12-15T06:58:05;21.90;;;9.93;;
51838;SDS011;37886;53.174;6.368;2022-12-15T07:00:32;18.65;;;10.13;;
51838;SDS011;37886;53.174;6.368;2022-12-15T07:03:01;16.88;;;9.30;;
51838;SDS011;37886;53.174;6.368;2022-12-15T07:05:27;19.92;;;9.68;;
51838;SDS011;37886;53.174;6.368;2022-12-15T07:07:53;21.92;;;11.02;;
51838;SDS011;37886;53.174;6.368;2022-12-15T07:10:19;18.85;;;10.05;;
51838;SDS011;37886;53.174;6.368;2022-12-15T07:12:44;20.50;;;11.07;;
51838;SDS011;37886;53.174;6.368;2022-12-15T07:15:10;22.48;;;11.05;;
51838;SDS011;37886;53.174;6.368;2022-12-15T07:17:37;21.05;;;10.68;;
51838;SDS011;37886;53.174;6.368;2022-12-15T07:20:03;18.65;;;10.95;;
51838;SDS011;37886;53.174;6.368;2022-12-15T07:22:29;21.40;;;10.25;;
51838;SDS011;37886;53.174;6.368;2022-12-15T07:24:55;19.38;;;10.15;;
51838;SDS011;37886;53.174;6.368;2022-12-15T07:27:21;17.20;;;10.60;;
51838;SDS011;37886;53.174;6.368;2022-12-15T07:29:47;19.60;;;10.50;;
51838;SDS011;37886;53.174;6.368;2022-12-15T07:32:13;22.90;;;10.23;;
51838;SDS011;37886;53.174;6.368;2022-12-15T07:34:40;22.70;;;10.48;;
51838;SDS011;37886;53.174;6.368;2022-12-15T07:37:06;21.77;;;10.95;;
51838;SDS011;37886;53.174;6.368;2022-12-15T07:39:32;20.88;;;10.38;;
51838;SDS011;37886;53.174;6.368;2022-12-15T07:41:58;20.27;;;9.40;;
51838;SDS011;37886;53.174;6.368;2022-12-15T07:44:24;26.05;;;10.18;;
51838;SDS011;37886;53.174;6.368;2022-12-15T07:46:49;21.48;;;10.77;;
51838;SDS011;37886;53.174;6.368;2022-12-15T07:49:16;17.98;;;10.18;;
51838;SDS011;37886;53.174;6.368;2022-12-15T07:51:42;19.52;;;10.20;;
51838;SDS011;37886;53.174;6.368;2022-12-15T07:54:09;22.60;;;10.32;;
51838;SDS011;37886;53.174;6.368;2022-12-15T07:56:39;23.85;;;10.23;;
51838;SDS011;37886;53.174;6.368;2022-12-15T07:59:06;18.55;;;10.15;;
51838;SDS011;37886;53.174;6.368;2022-12-15T08:01:32;26.67;;;9.93;;
51838;SDS011;37886;53.174;6.368;2022-12-15T08:04:09;18.98;;;9.40;;
51838;SDS011;37886;53.174;6.368;2022-12-15T08:06:35;24.95;;;10.15;;
51838;SDS011;37886;53.174;6.368;2022-12-15T08:09:01;24.65;;;10.68;;
51838;SDS011;37886;53.174;6.368;2022-12-15T08:11:27;20.48;;;9.80;;
51838;SDS011;37886;53.174;6.368;2022-12-15T08:13:52;22.00;;;10.18;;
51838;SDS011;37886;53.174;6.368;2022-12-15T08:16:18;22.77;;;10.13;;
51838;SDS011;37886;53.174;6.368;2022-12-15T08:18:44;24.55;;;10.82;;
51838;SDS011;37886;53.174;6.368;2022-12-15T08:21:10;19.95;;;10.68;;
51838;SDS011;37886;53.174;6.368;2022-12-15T08:23:36;18.50;;;11.05;;
51838;SDS011;37886;53.174;6.368;2022-12-15T08:26:08;20.08;;;10.85;;
51838;SDS011;37886;53.174;6.368;2022-12-15T08:28:38;22.80;;;10.88;;
51838;SDS011;37886;53.174;6.368;2022-12-15T08:31:06;25.17;;;11.48;;
51838;SDS011;37886;53.174;6.368;2022-12-15T08:33:35;22.45;;;11.18;;
51838;SDS011;37886;53.174;6.368;2022-12-15T08:36:03;19.33;;;11.02;;
51838;SDS011;37886;53.174;6.368;2022-12-15T08:38:31;20.60;;;10.68;;
51838;SDS011;37886;53.174;6.368;2022-12-15T08:40:57;18.30;;;10.65;;
51838;SDS011;37886;53.174;6.368;2022-12-15T08:43:34;24.30;;;10.70;;
51838;SDS011;37886;53.174;6.368;2022-12-15T08:46:01;24.60;;;11.55;;
51838;SDS011;37886;53.174;6.368;2022-12-15T08:48:27;18.45;;;9.73;;
51838;SDS011;37886;53.174;6.368;2022-12-15T08:50:54;20.02;;;10.25;;
51838;SDS011;37886;53.174;6.368;2022-12-15T08:53:23;21.00;;;10.50;;
51838;SDS011;37886;53.174;6.368;2022-12-15T08:55:50;20.75;;;10.80;;
51838;SDS011;37886;53.174;6.368;2022-12-15T08:58:16;21.95;;;10.07;;
51838;SDS011;37886;53.174;6.368;2022-12-15T09:00:42;16.33;;;9.27;;
51838;SDS011;37886;53.174;6.368;2022-12-15T09:03:08;19.90;;;10.57;;
51838;SDS011;37886;53.174;6.368;2022-12-15T09:05:34;19.83;;;9.60;;
51838;SDS011;37886;53.174;6.368;2022-12-15T09:08:04;20.67;;;10.90;;
51838;SDS011;37886;53.174;6.368;2022-12-15T09:10:30;22.75;;;11.13;;
51838;SDS011;37886;53.174;6.368;2022-12-15T09:12:56;20.60;;;9.98;;
51838;SDS011;37886;53.174;6.368;2022-12-15T09:15:22;26.73;;;9.82;;
51838;SDS011;37886;53.174;6.368;2022-12-15T09:17:47;19.55;;;10.35;;
51838;SDS011;37886;53.174;6.368;2022-12-15T09:20:13;16.25;;;10.27;;
51838;SDS011;37886;53.174;6.368;2022-12-15T09:22:40;17.67;;;9.65;;
51838;SDS011;37886;53.174;6.368;2022-12-15T09:25:06;18.25;;;10.13;;
51838;SDS011;37886;53.174;6.368;2022-12-15T09:27:32;17.58;;;10.23;;
51838;SDS011;37886;53.174;6.368;2022-12-15T09:29:59;18.80;;;10.10;;
51838;SDS011;37886;53.174;6.368;2022-12-15T09:32:25;17.80;;;9.68;;
51838;SDS011;37886;53.174;6.368;2022-12-15T09:34:51;24.40;;;10.00;;
51838;SDS011;37886;53.174;6.368;2022-12-15T09:37:18;21.02;;;11.30;;
51838;SDS011;37886;53.174;6.368;2022-12-15T09:39:45;16.27;;;10.43;;
51838;SDS011;37886;53.174;6.368;2022-12-15T09:44:47;15.65;;;10.10;;
51838;SDS011;37886;53.174;6.368;2022-12-15T09:49:54;25.55;;;10.73;;
51838;SDS011;37886;53.174;6.368;2022-12-15T09:54:58;24.00;;;11.00;;
51838;SDS011;37886;53.174;6.368;2022-12-15T10:00:14;21.63;;;11.65;;
51838;SDS011;37886;53.174;6.368;2022-12-15T10:08:16;22.65;;;12.15;;
51838;SDS011;37886;53.174;6.368;2022-12-15T10:13:24;24.90;;;12.18;;
51838;SDS011;37886;53.174;6.368;2022-12-15T10:19:12;27.90;;;11.38;;
51838;SDS011;37886;53.174;6.368;2022-12-15T10:24:17;21.55;;;11.73;;
51838;SDS011;37886;53.174;6.368;2022-12-15T10:27:06;24.63;;;12.20;;
51838;SDS011;37886;53.174;6.368;2022-12-15T10:30:01;24.38;;;12.55;;
51838;SDS011;37886;53.174;6.368;2022-12-15T10:32:32;23.02;;;11.38;;
51838;SDS011;37886;53.174;6.368;2022-12-15T10:35:10;23.50;;;12.45;;
51838;SDS011;37886;53.174;6.368;2022-12-15T10:37:39;24.52;;;11.77;;
51838;SDS011;37886;53.174;6.368;2022-12-15T10:40:06;17.98;;;11.60;;
51838;SDS011;37886;53.174;6.368;2022-12-15T10:42:32;26.02;;;11.52;;
51838;SDS011;37886;53.174;6.368;2022-12-15T10:45:31;21.25;;;11.52;;
51838;SDS011;37886;53.174;6.368;2022-12-15T10:48:01;20.60;;;10.55;;
51838;SDS011;37886;53.174;6.368;2022-12-15T10:50:31;18.08;;;10.63;;
51838;SDS011;37886;53.174;6.368;2022-12-15T10:52:57;25.35;;;11.57;;
51838;SDS011;37886;53.174;6.368;2022-12-15T10:55:40;26.52;;;10.88;;
51838;SDS011;37886;53.174;6.368;2022-12-15T10:58:14;22.65;;;10.32;;
51838;SDS011;37886;53.174;6.368;2022-12-15T11:00:47;22.02;;;11.02;;
51838;SDS011;37886;53.174;6.368;2022-12-15T11:03:29;19.42;;;10.00;;
51838;SDS011;37886;53.174;6.368;2022-12-15T11:06:01;20.83;;;10.88;;
51838;SDS011;37886;53.174;6.368;2022-12-15T11:08:38;17.75;;;10.20;;
51838;SDS011;37886;53.174;6.368;2022-12-15T11:14:50;18.58;;;9.82;;
51838;SDS011;37886;53.174;6.368;2022-12-15T11:17:39;16.45;;;9.95;;
51838;SDS011;37886;53.174;6.368;2022-12-15T11:20:11;19.93;;;9.67;;
51838;SDS011;37886;53.174;6.368;2022-12-15T11:22:45;20.00;;;8.77;;
51838;SDS011;37886;53.174;6.368;2022-12-15T11:25:34;23.00;;;9.90;;
51838;SDS011;37886;53.174;6.368;2022-12-15T11:28:07;22.30;;;8.75;;
51838;SDS011;37886;53.174;6.368;2022-12-15T11:31:01;19.70;;;9.05;;
51838;SDS011;37886;53.174;6.368;2022-12-15T11:33:31;20.20;;;9.55;;
51838;SDS011;37886;53.174;6.368;2022-12-15T11:42:23;18.80;;;9.35;;
51838;SDS011;37886;53.174;6.368;2022-12-15T11:47:52;17.30;;;8.20;;
51838;SDS011;37886;53.174;6.368;2022-12-15T11:52:55;16.45;;;8.70;;
51838;SDS011;37886;53.174;6.368;2022-12-15T12:05:59;14.30;;;7.75;;
51838;SDS011;37886;53.174;6.368;2022-12-15T12:13:29;18.15;;;8.23;;
51838;SDS011;37886;53.174;6.368;2022-12-15T12:16:17;15.35;;;8.77;;
51838;SDS011;37886;53.174;6.368;2022-12-15T12:21:34;15.98;;;8.07;;
51838;SDS011;37886;53.174;6.368;2022-12-15T12:26:40;15.88;;;7.28;;
51838;SDS011;37886;53.174;6.368;2022-12-15T12:36:56;14.43;;;6.57;;
51838;SDS011;37886;53.174;6.368;2022-12-15T12:39:33;16.92;;;7.25;;
51838;SDS011;37886;53.174;6.368;2022-12-15T12:42:05;19.23;;;7.05;;
51838;SDS011;37886;53.174;6.368;2022-12-15T12:44:39;16.13;;;7.32;;
51838;SDS011;37886;53.174;6.368;2022-12-15T12:47:11;16.98;;;7.07;;
51838;SDS011;37886;53.174;6.368;2022-12-15T12:49:45;17.15;;;7.90;;
51838;SDS011;37886;53.174;6.368;2022-12-15T12:52:18;12.52;;;6.43;;
51838;SDS011;37886;53.174;6.368;2022-12-15T12:57:41;11.18;;;5.85;;
51838;SDS011;37886;53.174;6.368;2022-12-15T13:07:54;20.77;;;7.07;;
51838;SDS011;37886;53.174;6.368;2022-12-15T13:10:41;9.90;;;4.68;;
51838;SDS011;37886;53.174;6.368;2022-12-15T13:15:49;18.65;;;5.57;;
51838;SDS011;37886;53.174;6.368;2022-12-15T13:18:25;12.13;;;5.60;;
51838;SDS011;37886;53.174;6.368;2022-12-15T13:20:55;16.00;;;5.72;;
51838;SDS011;37886;53.174;6.368;2022-12-15T13:26:32;16.90;;;5.57;;
51838;SDS011;37886;53.174;6.368;2022-12-15T13:39:31;10.90;;;5.85;;
51838;SDS011;37886;53.174;6.368;2022-12-15T13:44:31;17.52;;;5.57;;
51838;SDS011;37886;53.174;6.368;2022-12-15T13:47:25;15.25;;;6.60;;
51838;SDS011;37886;53.174;6.368;2022-12-15T13:50:10;20.38;;;6.25;;
51838;SDS011;37886;53.174;6.368;2022-12-15T13:52:42;14.02;;;7.03;;
51838;SDS011;37886;53.174;6.368;2022-12-15T13:58:28;12.73;;;5.95;;
51838;SDS011;37886;53.174;6.368;2022-12-15T14:00:46;15.70;;;6.38;;
51838;SDS011;37886;53.174;6.368;2022-12-15T14:03:18;13.02;;;6.00;;
51838;SDS011;37886;53.174;6.368;2022-12-15T14:05:51;15.23;;;6.13;;
51838;SDS011;37886;53.174;6.368;2022-12-15T14:08:19;11.00;;;5.97;;
51838;SDS011;37886;53.174;6.368;2022-12-15T14:10:53;15.80;;;6.65;;
51838;SDS011;37886;53.174;6.368;2022-12-15T14:13:23;21.92;;;6.18;;
51838;SDS011;37886;53.174;6.368;2022-12-15T14:15:51;18.60;;;6.10;;
51838;SDS011;37886;53.174;6.368;2022-12-15T14:18:43;13.38;;;5.97;;
51838;SDS011;37886;53.174;6.368;2022-12-15T14:21:26;12.95;;;6.28;;
51838;SDS011;37886;53.174;6.368;2022-12-15T14:23:53;18.45;;;6.88;;
51838;SDS011;37886;53.174;6.368;2022-12-15T14:26:26;19.48;;;7.07;;
51838;SDS011;37886;53.174;6.368;2022-12-15T14:29:02;13.40;;;6.70;;
51838;SDS011;37886;53.174;6.368;2022-12-15T14:31:29;18.73;;;7.00;;
51838;SDS011;37886;53.174;6.368;2022-12-15T14:34:29;20.25;;;7.07;;
51838;SDS011;37886;53.174;6.368;2022-12-15T14:36:47;13.02;;;6.63;;
51838;SDS011;37886;53.174;6.368;2022-12-15T14:41:47;17.30;;;7.57;;
51838;SDS011;37886;53.174;6.368;2022-12-15T14:46:57;24.17;;;6.45;;
51838;SDS011;37886;53.174;6.368;2022-12-15T14:49:28;15.38;;;6.47;;
51838;SDS011;37886;53.174;6.368;2022-12-15T14:51:57;19.58;;;7.25;;
51838;SDS011;37886;53.174;6.368;2022-12-15T14:54:36;16.00;;;6.20;;
51838;SDS011;37886;53.174;6.368;2022-12-15T14:57:15;17.60;;;5.95;;
51838;SDS011;37886;53.174;6.368;2022-12-15T14:59:46;20.50;;;6.13;;
51838;SDS011;37886;53.174;6.368;2022-12-15T15:04:56;22.02;;;6.20;;
51838;SDS011;37886;53.174;6.368;2022-12-15T15:07:33;15.88;;;6.20;;
51838;SDS011;37886;53.174;6.368;2022-12-15T15:10:02;20.40;;;5.60;;
51838;SDS011;37886;53.174;6.368;2022-12-15T15:12:45;18.98;;;5.85;;
51838;SDS011;37886;53.174;6.368;2022-12-15T15:15:14;15.18;;;6.38;;
51838;SDS011;37886;53.174;6.368;2022-12-15T15:17:49;15.18;;;7.13;;
51838;SDS011;37886;53.174;6.368;2022-12-15T15:20:30;20.17;;;6.50;;
51838;SDS011;37886;53.174;6.368;2022-12-15T15:30:54;17.95;;;6.25;;
51838;SDS011;37886;53.174;6.368;2022-12-15T15:33:23;18.45;;;6.82;;
51838;SDS011;37886;53.174;6.368;2022-12-15T15:35:59;16.38;;;6.85;;
51838;SDS011;37886;53.174;6.368;2022-12-15T15:38:33;14.02;;;6.35;;
51838;SDS011;37886;53.174;6.368;2022-12-15T15:41:26;20.05;;;8.38;;
51838;SDS011;37886;53.174;6.368;2022-12-15T15:43:56;21.65;;;9.20;;
51838;SDS011;37886;53.174;6.368;2022-12-15T15:46:24;26.48;;;14.32;;
51838;SDS011;37886;53.174;6.368;2022-12-15T15:51:20;19.75;;;8.50;;
51838;SDS011;37886;53.174;6.368;2022-12-15T15:53:47;17.83;;;8.35;;
51838;SDS011;37886;53.174;6.368;2022-12-15T15:56:14;17.73;;;8.50;;
51838;SDS011;37886;53.174;6.368;2022-12-15T15:58:41;21.02;;;8.85;;
51838;SDS011;37886;53.174;6.368;2022-12-15T16:01:08;24.02;;;9.15;;
51838;SDS011;37886;53.174;6.368;2022-12-15T16:03:34;19.30;;;8.75;;
51838;SDS011;37886;53.174;6.368;2022-12-15T16:06:03;18.08;;;8.75;;
51838;SDS011;37886;53.174;6.368;2022-12-15T16:08:32;23.00;;;9.63;;
51838;SDS011;37886;53.174;6.368;2022-12-15T16:11:00;17.92;;;8.68;;
51838;SDS011;37886;53.174;6.368;2022-12-15T16:13:27;23.92;;;9.75;;
51838;SDS011;37886;53.174;6.368;2022-12-15T16:15:53;22.45;;;10.10;;
51838;SDS011;37886;53.174;6.368;2022-12-15T16:18:19;21.67;;;11.13;;
51838;SDS011;37886;53.174;6.368;2022-12-15T16:20:45;25.85;;;10.13;;
51838;SDS011;37886;53.174;6.368;2022-12-15T16:23:15;18.65;;;10.40;;
51838;SDS011;37886;53.174;6.368;2022-12-15T16:25:46;21.75;;;11.00;;
51838;SDS011;37886;53.174;6.368;2022-12-15T16:28:16;26.23;;;11.02;;
51838;SDS011;37886;53.174;6.368;2022-12-15T16:30:44;30.02;;;11.40;;
51838;SDS011;37886;53.174;6.368;2022-12-15T16:33:11;22.40;;;11.38;;
51838;SDS011;37886;53.174;6.368;2022-12-15T16:35:37;20.90;;;11.82;;
51838;SDS011;37886;53.174;6.368;2022-12-15T16:38:04;24.45;;;12.05;;
51838;SDS011;37886;53.174;6.368;2022-12-15T16:40:36;26.30;;;14.35;;
51838;SDS011;37886;53.174;6.368;2022-12-15T16:43:02;31.02;;;15.98;;
51838;SDS011;37886;53.174;6.368;2022-12-15T16:45:37;30.00;;;15.50;;
51838;SDS011;37886;53.174;6.368;2022-12-15T16:48:09;33.33;;;17.95;;
51838;SDS011;37886;53.174;6.368;2022-12-15T16:50:35;30.88;;;17.00;;
51838;SDS011;37886;53.174;6.368;2022-12-15T16:53:02;34.05;;;18.00;;
51838;SDS011;37886;53.174;6.368;2022-12-15T16:55:30;34.15;;;19.40;;
51838;SDS011;37886;53.174;6.368;2022-12-15T16:58:00;35.53;;;20.07;;
51838;SDS011;37886;53.174;6.368;2022-12-15T17:00:31;47.92;;;20.10;;
51838;SDS011;37886;53.174;6.368;2022-12-15T17:02:59;40.13;;;21.45;;
51838;SDS011;37886;53.174;6.368;2022-12-15T17:05:26;36.53;;;19.85;;
51838;SDS011;37886;53.174;6.368;2022-12-15T17:07:57;36.13;;;20.83;;
51838;SDS011;37886;53.174;6.368;2022-12-15T17:10:26;37.28;;;20.95;;
51838;SDS011;37886;53.174;6.368;2022-12-15T17:12:56;42.80;;;21.63;;
51838;SDS011;37886;53.174;6.368;2022-12-15T17:15:28;41.20;;;21.40;;
51838;SDS011;37886;53.174;6.368;2022-12-15T17:17:57;37.58;;;21.88;;
51838;SDS011;37886;53.174;6.368;2022-12-15T17:20:30;44.42;;;24.48;;
51838;SDS011;37886;53.174;6.368;2022-12-15T17:22:57;42.03;;;25.25;;
51838;SDS011;37886;53.174;6.368;2022-12-15T17:25:35;40.25;;;23.75;;
51838;SDS011;37886;53.174;6.368;2022-12-15T17:28:05;43.00;;;24.15;;
51838;SDS011;37886;53.174;6.368;2022-12-15T17:30:37;45.33;;;24.02;;
51838;SDS011;37886;53.174;6.368;2022-12-15T17:33:09;47.53;;;24.05;;
51838;SDS011;37886;53.174;6.368;2022-12-15T17:35:48;41.15;;;23.10;;
51838;SDS011;37886;53.174;6.368;2022-12-15T17:38:17;43.95;;;22.85;;